sensor_id;sensor_type;location;lat;lon;timestamp;P1;durP1;ratioP1;P2;durP2;ratioP2
71869;SDS011;59739;47.696;11.746;2023-02-28T00:01:23;10.07;;;5.95;;
71869;SDS011;59739;47.696;11.746;2023-02-28T00:03:49;9.88;;;5.55;;
71869;SDS011;59739;47.696;11.746;2023-02-28T00:06:15;8.18;;;5.50;;
71869;SDS011;59739;47.696;11.746;2023-02-28T00:08:42;8.52;;;5.78;;
71869;SDS011;59739;47.696;11.746;2023-02-28T00:11:09;8.77;;;5.97;;
71869;SDS011;59739;47.696;11.746;2023-02-28T00:13:39;11.15;;;6.30;;
71869;SDS011;59739;47.696;11.746;2023-02-28T00:16:08;10.90;;;6.10;;
71869;SDS011;59739;47.696;11.746;2023-02-28T00:18:38;10.85;;;7.00;;
71869;SDS011;59739;47.696;11.746;2023-02-28T00:21:05;12.02;;;5.60;;
71869;SDS011;59739;47.696;11.746;2023-02-28T00:23:31;8.32;;;5.78;;
71869;SDS011;59739;47.696;11.746;2023-02-28T00:25:58;7.85;;;6.10;;
71869;SDS011;59739;47.696;11.746;2023-02-28T00:28:24;9.95;;;5.88;;
71869;SDS011;59739;47.696;11.746;2023-02-28T00:30:50;7.75;;;5.65;;
71869;SDS011;59739;47.696;11.746;2023-02-28T00:33:16;8.95;;;6.22;;
71869;SDS011;59739;47.696;11.746;2023-02-28T00:35:42;9.50;;;6.00;;
71869;SDS011;59739;47.696;11.746;2023-02-28T00:38:11;8.02;;;5.65;;
71869;SDS011;59739;47.696;11.746;2023-02-28T00:40:38;8.93;;;5.32;;
71869;SDS011;59739;47.696;11.746;2023-02-28T00:43:04;7.55;;;5.93;;
71869;SDS011;59739;47.696;11.746;2023-02-28T00:45:30;8.90;;;5.53;;
71869;SDS011;59739;47.696;11.746;2023-02-28T00:47:57;8.13;;;6.05;;
71869;SDS011;59739;47.696;11.746;2023-02-28T00:50:23;9.07;;;5.93;;
71869;SDS011;59739;47.696;11.746;2023-02-28T00:52:49;7.95;;;6.00;;
71869;SDS011;59739;47.696;11.746;2023-02-28T00:55:15;7.78;;;5.60;;
71869;SDS011;59739;47.696;11.746;2023-02-28T00:57:41;9.70;;;6.43;;
71869;SDS011;59739;47.696;11.746;2023-02-28T01:00:08;8.38;;;5.70;;
71869;SDS011;59739;47.696;11.746;2023-02-28T01:02:36;9.55;;;6.35;;
71869;SDS011;59739;47.696;11.746;2023-02-28T01:05:02;8.15;;;6.35;;
71869;SDS011;59739;47.696;11.746;2023-02-28T01:07:30;8.07;;;6.07;;
71869;SDS011;59739;47.696;11.746;2023-02-28T01:09:56;14.05;;;7.25;;
71869;SDS011;59739;47.696;11.746;2023-02-28T01:12:23;14.52;;;7.90;;
71869;SDS011;59739;47.696;11.746;2023-02-28T01:14:49;12.23;;;7.15;;
71869;SDS011;59739;47.696;11.746;2023-02-28T01:17:15;11.75;;;6.95;;
71869;SDS011;59739;47.696;11.746;2023-02-28T01:19:41;10.88;;;6.10;;
71869;SDS011;59739;47.696;11.746;2023-02-28T01:22:08;9.60;;;6.28;;
71869;SDS011;59739;47.696;11.746;2023-02-28T01:24:34;12.38;;;7.03;;
71869;SDS011;59739;47.696;11.746;2023-02-28T01:27:00;12.88;;;7.03;;
71869;SDS011;59739;47.696;11.746;2023-02-28T01:29:26;10.35;;;6.80;;
71869;SDS011;59739;47.696;11.746;2023-02-28T01:31:52;11.63;;;7.53;;
71869;SDS011;59739;47.696;11.746;2023-02-28T01:34:19;11.25;;;7.57;;
71869;SDS011;59739;47.696;11.746;2023-02-28T01:36:45;10.95;;;7.35;;
71869;SDS011;59739;47.696;11.746;2023-02-28T01:39:11;13.13;;;7.65;;
71869;SDS011;59739;47.696;11.746;2023-02-28T01:41:38;9.98;;;7.18;;
71869;SDS011;59739;47.696;11.746;2023-02-28T01:44:07;10.18;;;7.38;;
71869;SDS011;59739;47.696;11.746;2023-02-28T01:47:35;14.88;;;6.72;;
71869;SDS011;59739;47.696;11.746;2023-02-28T01:50:06;9.85;;;6.53;;
71869;SDS011;59739;47.696;11.746;2023-02-28T01:52:39;11.15;;;6.85;;
71869;SDS011;59739;47.696;11.746;2023-02-28T01:55:06;11.05;;;6.78;;
71869;SDS011;59739;47.696;11.746;2023-02-28T01:57:35;10.20;;;6.63;;
71869;SDS011;59739;47.696;11.746;2023-02-28T02:02:46;10.52;;;6.47;;
71869;SDS011;59739;47.696;11.746;2023-02-28T02:05:16;10.35;;;6.10;;
71869;SDS011;59739;47.696;11.746;2023-02-28T02:07:46;10.15;;;6.75;;
71869;SDS011;59739;47.696;11.746;2023-02-28T02:10:23;9.60;;;6.40;;
71869;SDS011;59739;47.696;11.746;2023-02-28T02:25:11;11.88;;;6.78;;
71869;SDS011;59739;47.696;11.746;2023-02-28T02:42:52;10.20;;;5.85;;
71869;SDS011;59739;47.696;11.746;2023-02-28T02:45:38;10.45;;;7.13;;
71869;SDS011;59739;47.696;11.746;2023-02-28T02:48:13;10.15;;;6.68;;
71869;SDS011;59739;47.696;11.746;2023-02-28T02:50:43;11.13;;;6.50;;
71869;SDS011;59739;47.696;11.746;2023-02-28T02:53:14;9.75;;;6.68;;
71869;SDS011;59739;47.696;11.746;2023-02-28T02:55:46;11.13;;;6.70;;
71869;SDS011;59739;47.696;11.746;2023-02-28T02:58:18;8.98;;;5.93;;
71869;SDS011;59739;47.696;11.746;2023-02-28T03:00:56;9.07;;;5.88;;
71869;SDS011;59739;47.696;11.746;2023-02-28T03:03:25;9.50;;;5.97;;
71869;SDS011;59739;47.696;11.746;2023-02-28T03:05:56;8.93;;;6.05;;
71869;SDS011;59739;47.696;11.746;2023-02-28T03:08:26;9.60;;;6.32;;
71869;SDS011;59739;47.696;11.746;2023-02-28T03:11:05;11.30;;;6.57;;
71869;SDS011;59739;47.696;11.746;2023-02-28T03:31:15;10.00;;;6.22;;
71869;SDS011;59739;47.696;11.746;2023-02-28T03:34:02;8.38;;;6.50;;
71869;SDS011;59739;47.696;11.746;2023-02-28T03:36:37;10.75;;;6.55;;
71869;SDS011;59739;47.696;11.746;2023-02-28T03:39:17;10.60;;;6.75;;
71869;SDS011;59739;47.696;11.746;2023-02-28T03:42:04;10.23;;;6.20;;
71869;SDS011;59739;47.696;11.746;2023-02-28T03:44:51;9.25;;;5.97;;
71869;SDS011;59739;47.696;11.746;2023-02-28T03:47:29;10.48;;;6.47;;
71869;SDS011;59739;47.696;11.746;2023-02-28T03:52:47;11.15;;;8.15;;
71869;SDS011;59739;47.696;11.746;2023-02-28T03:55:18;10.80;;;6.65;;
71869;SDS011;59739;47.696;11.746;2023-02-28T03:57:52;10.15;;;6.15;;
71869;SDS011;59739;47.696;11.746;2023-02-28T04:03:07;9.80;;;6.07;;
71869;SDS011;59739;47.696;11.746;2023-02-28T04:05:34;11.73;;;6.45;;
71869;SDS011;59739;47.696;11.746;2023-02-28T04:08:19;9.80;;;6.55;;
71869;SDS011;59739;47.696;11.746;2023-02-28T04:10:48;9.18;;;6.03;;
71869;SDS011;59739;47.696;11.746;2023-02-28T04:13:23;10.00;;;5.47;;
71869;SDS011;59739;47.696;11.746;2023-02-28T04:15:49;8.40;;;6.50;;
71869;SDS011;59739;47.696;11.746;2023-02-28T04:18:15;9.52;;;5.75;;
71869;SDS011;59739;47.696;11.746;2023-02-28T04:20:41;10.40;;;6.78;;
71869;SDS011;59739;47.696;11.746;2023-02-28T04:23:07;10.32;;;6.35;;
71869;SDS011;59739;47.696;11.746;2023-02-28T04:25:33;9.77;;;6.68;;
71869;SDS011;59739;47.696;11.746;2023-02-28T04:27:59;10.15;;;6.15;;
71869;SDS011;59739;47.696;11.746;2023-02-28T04:30:25;9.20;;;5.75;;
71869;SDS011;59739;47.696;11.746;2023-02-28T04:32:51;7.20;;;5.72;;
71869;SDS011;59739;47.696;11.746;2023-02-28T04:35:17;9.18;;;6.15;;
71869;SDS011;59739;47.696;11.746;2023-02-28T04:37:43;9.45;;;5.40;;
71869;SDS011;59739;47.696;11.746;2023-02-28T04:40:09;8.48;;;6.13;;
71869;SDS011;59739;47.696;11.746;2023-02-28T04:42:35;10.57;;;6.22;;
71869;SDS011;59739;47.696;11.746;2023-02-28T04:45:02;8.00;;;6.22;;
71869;SDS011;59739;47.696;11.746;2023-02-28T04:47:28;9.52;;;6.63;;
71869;SDS011;59739;47.696;11.746;2023-02-28T04:49:55;9.27;;;5.93;;
71869;SDS011;59739;47.696;11.746;2023-02-28T04:52:21;8.60;;;5.57;;
71869;SDS011;59739;47.696;11.746;2023-02-28T04:54:47;10.27;;;6.05;;
71869;SDS011;59739;47.696;11.746;2023-02-28T04:57:13;7.80;;;5.93;;
71869;SDS011;59739;47.696;11.746;2023-02-28T04:59:39;9.85;;;6.13;;
71869;SDS011;59739;47.696;11.746;2023-02-28T05:02:05;8.55;;;6.43;;
71869;SDS011;59739;47.696;11.746;2023-02-28T05:04:34;9.68;;;6.18;;
71869;SDS011;59739;47.696;11.746;2023-02-28T05:07:01;9.00;;;6.07;;
71869;SDS011;59739;47.696;11.746;2023-02-28T05:09:28;10.88;;;6.47;;
71869;SDS011;59739;47.696;11.746;2023-02-28T05:11:55;10.35;;;6.47;;
71869;SDS011;59739;47.696;11.746;2023-02-28T05:14:21;9.35;;;6.55;;
71869;SDS011;59739;47.696;11.746;2023-02-28T05:16:47;11.82;;;7.45;;
71869;SDS011;59739;47.696;11.746;2023-02-28T05:19:13;9.82;;;6.63;;
71869;SDS011;59739;47.696;11.746;2023-02-28T05:21:40;11.32;;;7.63;;
71869;SDS011;59739;47.696;11.746;2023-02-28T05:24:14;12.18;;;6.38;;
71869;SDS011;59739;47.696;11.746;2023-02-28T05:26:48;11.40;;;7.80;;
71869;SDS011;59739;47.696;11.746;2023-02-28T05:29:16;21.95;;;13.27;;
71869;SDS011;59739;47.696;11.746;2023-02-28T05:31:42;21.60;;;12.45;;
71869;SDS011;59739;47.696;11.746;2023-02-28T05:34:08;29.00;;;14.13;;
71869;SDS011;59739;47.696;11.746;2023-02-28T05:36:37;32.67;;;17.00;;
71869;SDS011;59739;47.696;11.746;2023-02-28T05:39:07;25.48;;;13.93;;
71869;SDS011;59739;47.696;11.746;2023-02-28T05:41:37;26.75;;;14.65;;
71869;SDS011;59739;47.696;11.746;2023-02-28T05:44:08;17.63;;;9.73;;
71869;SDS011;59739;47.696;11.746;2023-02-28T05:46:34;18.02;;;10.57;;
71869;SDS011;59739;47.696;11.746;2023-02-28T05:49:00;13.80;;;8.50;;
71869;SDS011;59739;47.696;11.746;2023-02-28T05:51:27;16.05;;;8.23;;
71869;SDS011;59739;47.696;11.746;2023-02-28T05:53:53;14.23;;;9.52;;
71869;SDS011;59739;47.696;11.746;2023-02-28T05:56:19;14.60;;;8.93;;
71869;SDS011;59739;47.696;11.746;2023-02-28T05:58:45;18.23;;;8.52;;
71869;SDS011;59739;47.696;11.746;2023-02-28T06:04:08;12.85;;;8.25;;
71869;SDS011;59739;47.696;11.746;2023-02-28T06:06:35;13.35;;;8.68;;
71869;SDS011;59739;47.696;11.746;2023-02-28T06:09:02;14.52;;;9.27;;
71869;SDS011;59739;47.696;11.746;2023-02-28T06:11:30;15.70;;;9.13;;
71869;SDS011;59739;47.696;11.746;2023-02-28T06:13:56;16.42;;;9.60;;
71869;SDS011;59739;47.696;11.746;2023-02-28T06:16:25;17.70;;;9.57;;
71869;SDS011;59739;47.696;11.746;2023-02-28T06:18:52;14.98;;;9.38;;
71869;SDS011;59739;47.696;11.746;2023-02-28T06:21:18;15.68;;;9.30;;
71869;SDS011;59739;47.696;11.746;2023-02-28T06:23:44;14.00;;;8.48;;
71869;SDS011;59739;47.696;11.746;2023-02-28T06:26:10;14.38;;;9.90;;
71869;SDS011;59739;47.696;11.746;2023-02-28T06:28:36;16.23;;;9.45;;
71869;SDS011;59739;47.696;11.746;2023-02-28T06:31:06;17.20;;;9.68;;
71869;SDS011;59739;47.696;11.746;2023-02-28T06:33:34;17.55;;;10.35;;
71869;SDS011;59739;47.696;11.746;2023-02-28T06:36:01;23.55;;;13.00;;
71869;SDS011;59739;47.696;11.746;2023-02-28T06:38:28;20.50;;;12.65;;
71869;SDS011;59739;47.696;11.746;2023-02-28T06:40:56;19.17;;;12.57;;
71869;SDS011;59739;47.696;11.746;2023-02-28T06:43:24;20.15;;;12.15;;
71869;SDS011;59739;47.696;11.746;2023-02-28T06:45:57;20.38;;;11.55;;
71869;SDS011;59739;47.696;11.746;2023-02-28T06:48:25;20.30;;;11.90;;
71869;SDS011;59739;47.696;11.746;2023-02-28T06:50:52;19.58;;;11.32;;
71869;SDS011;59739;47.696;11.746;2023-02-28T06:53:34;21.10;;;12.13;;
71869;SDS011;59739;47.696;11.746;2023-02-28T06:56:04;18.70;;;11.57;;
71869;SDS011;59739;47.696;11.746;2023-02-28T06:58:37;20.75;;;10.85;;
71869;SDS011;59739;47.696;11.746;2023-02-28T07:01:04;17.23;;;11.32;;
71869;SDS011;59739;47.696;11.746;2023-02-28T07:03:31;15.20;;;10.63;;
71869;SDS011;59739;47.696;11.746;2023-02-28T07:05:57;17.17;;;10.45;;
71869;SDS011;59739;47.696;11.746;2023-02-28T07:08:24;16.38;;;10.07;;
71869;SDS011;59739;47.696;11.746;2023-02-28T07:10:52;15.88;;;11.10;;
71869;SDS011;59739;47.696;11.746;2023-02-28T07:13:22;15.73;;;10.15;;
71869;SDS011;59739;47.696;11.746;2023-02-28T07:18:26;18.10;;;10.57;;
71869;SDS011;59739;47.696;11.746;2023-02-28T07:20:53;16.35;;;10.60;;
71869;SDS011;59739;47.696;11.746;2023-02-28T07:23:19;19.92;;;11.40;;
71869;SDS011;59739;47.696;11.746;2023-02-28T07:25:46;17.98;;;10.18;;
71869;SDS011;59739;47.696;11.746;2023-02-28T07:28:12;15.98;;;10.35;;
71869;SDS011;59739;47.696;11.746;2023-02-28T07:30:39;17.33;;;10.77;;
71869;SDS011;59739;47.696;11.746;2023-02-28T07:33:05;19.58;;;12.20;;
71869;SDS011;59739;47.696;11.746;2023-02-28T07:35:32;17.92;;;10.80;;
71869;SDS011;59739;47.696;11.746;2023-02-28T07:37:58;17.48;;;9.25;;
71869;SDS011;59739;47.696;11.746;2023-02-28T07:40:25;20.50;;;11.65;;
71869;SDS011;59739;47.696;11.746;2023-02-28T07:42:52;16.73;;;10.20;;
71869;SDS011;59739;47.696;11.746;2023-02-28T07:45:18;15.10;;;9.90;;
71869;SDS011;59739;47.696;11.746;2023-02-28T07:47:44;16.02;;;9.50;;
71869;SDS011;59739;47.696;11.746;2023-02-28T07:50:12;13.27;;;8.65;;
71869;SDS011;59739;47.696;11.746;2023-02-28T07:52:41;21.55;;;11.00;;
71869;SDS011;59739;47.696;11.746;2023-02-28T07:55:07;18.85;;;11.35;;
71869;SDS011;59739;47.696;11.746;2023-02-28T07:57:34;16.92;;;9.98;;
71869;SDS011;59739;47.696;11.746;2023-02-28T08:00:02;17.25;;;9.18;;
71869;SDS011;59739;47.696;11.746;2023-02-28T08:02:36;18.42;;;10.40;;
71869;SDS011;59739;47.696;11.746;2023-02-28T08:05:02;15.27;;;10.60;;
71869;SDS011;59739;47.696;11.746;2023-02-28T08:07:29;13.60;;;9.13;;
71869;SDS011;59739;47.696;11.746;2023-02-28T08:09:55;16.27;;;9.82;;
71869;SDS011;59739;47.696;11.746;2023-02-28T08:12:21;18.70;;;9.23;;
71869;SDS011;59739;47.696;11.746;2023-02-28T08:14:47;16.63;;;9.32;;
71869;SDS011;59739;47.696;11.746;2023-02-28T08:17:13;15.18;;;9.02;;
71869;SDS011;59739;47.696;11.746;2023-02-28T08:19:39;13.35;;;8.93;;
71869;SDS011;59739;47.696;11.746;2023-02-28T08:22:05;16.83;;;9.43;;
71869;SDS011;59739;47.696;11.746;2023-02-28T08:24:31;15.23;;;9.60;;
71869;SDS011;59739;47.696;11.746;2023-02-28T08:26:58;13.02;;;8.90;;
71869;SDS011;59739;47.696;11.746;2023-02-28T08:29:24;12.52;;;7.85;;
71869;SDS011;59739;47.696;11.746;2023-02-28T08:42:54;12.95;;;8.48;;
71869;SDS011;59739;47.696;11.746;2023-02-28T08:45:20;12.90;;;8.82;;
71869;SDS011;59739;47.696;11.746;2023-02-28T08:47:46;13.55;;;9.32;;
71869;SDS011;59739;47.696;11.746;2023-02-28T08:50:12;14.73;;;8.90;;
71869;SDS011;59739;47.696;11.746;2023-02-28T08:52:41;17.02;;;10.05;;
71869;SDS011;59739;47.696;11.746;2023-02-28T08:55:09;15.32;;;9.45;;
71869;SDS011;59739;47.696;11.746;2023-02-28T08:57:35;15.07;;;9.05;;
71869;SDS011;59739;47.696;11.746;2023-02-28T09:00:02;12.18;;;8.32;;
71869;SDS011;59739;47.696;11.746;2023-02-28T09:02:32;16.48;;;9.65;;
71869;SDS011;59739;47.696;11.746;2023-02-28T09:04:58;13.88;;;8.20;;
71869;SDS011;59739;47.696;11.746;2023-02-28T09:07:24;12.77;;;8.35;;
71869;SDS011;59739;47.696;11.746;2023-02-28T09:09:50;14.73;;;8.70;;
71869;SDS011;59739;47.696;11.746;2023-02-28T09:12:23;13.23;;;8.68;;
71869;SDS011;59739;47.696;11.746;2023-02-28T09:14:51;14.63;;;7.70;;
71869;SDS011;59739;47.696;11.746;2023-02-28T09:17:18;12.88;;;8.18;;
71869;SDS011;59739;47.696;11.746;2023-02-28T09:19:44;12.23;;;7.90;;
71869;SDS011;59739;47.696;11.746;2023-02-28T09:22:12;12.13;;;8.05;;
71869;SDS011;59739;47.696;11.746;2023-02-28T09:24:38;11.82;;;8.13;;
71869;SDS011;59739;47.696;11.746;2023-02-28T09:27:05;12.80;;;8.20;;
71869;SDS011;59739;47.696;11.746;2023-02-28T09:29:31;13.07;;;7.95;;
71869;SDS011;59739;47.696;11.746;2023-02-28T09:31:59;12.88;;;7.63;;
71869;SDS011;59739;47.696;11.746;2023-02-28T09:34:26;12.88;;;7.60;;
71869;SDS011;59739;47.696;11.746;2023-02-28T09:36:55;13.05;;;8.13;;
71869;SDS011;59739;47.696;11.746;2023-02-28T09:39:21;13.70;;;7.93;;
71869;SDS011;59739;47.696;11.746;2023-02-28T09:41:50;12.98;;;7.97;;
71869;SDS011;59739;47.696;11.746;2023-02-28T09:46:57;16.50;;;8.73;;
71869;SDS011;59739;47.696;11.746;2023-02-28T09:49:35;14.93;;;8.00;;
71869;SDS011;59739;47.696;11.746;2023-02-28T09:52:10;13.38;;;8.60;;
71869;SDS011;59739;47.696;11.746;2023-02-28T09:54:44;13.15;;;8.77;;
71869;SDS011;59739;47.696;11.746;2023-02-28T09:57:17;12.32;;;8.20;;
71869;SDS011;59739;47.696;11.746;2023-02-28T10:00:05;14.82;;;9.13;;
71869;SDS011;59739;47.696;11.746;2023-02-28T10:05:41;13.75;;;8.43;;
71869;SDS011;59739;47.696;11.746;2023-02-28T10:11:16;16.08;;;9.77;;
71869;SDS011;59739;47.696;11.746;2023-02-28T10:22:13;15.63;;;9.10;;
71869;SDS011;59739;47.696;11.746;2023-02-28T10:24:42;16.35;;;10.10;;
71869;SDS011;59739;47.696;11.746;2023-02-28T10:27:25;13.27;;;8.68;;
71869;SDS011;59739;47.696;11.746;2023-02-28T10:29:56;18.50;;;10.00;;
71869;SDS011;59739;47.696;11.746;2023-02-28T10:32:26;16.13;;;9.55;;
71869;SDS011;59739;47.696;11.746;2023-02-28T10:35:15;14.10;;;9.30;;
71869;SDS011;59739;47.696;11.746;2023-02-28T10:38:05;15.90;;;9.80;;
71869;SDS011;59739;47.696;11.746;2023-02-28T10:40:41;15.70;;;9.80;;
71869;SDS011;59739;47.696;11.746;2023-02-28T10:45:39;17.08;;;10.38;;
71869;SDS011;59739;47.696;11.746;2023-02-28T10:50:44;16.98;;;10.32;;
71869;SDS011;59739;47.696;11.746;2023-02-28T10:55:59;20.30;;;10.77;;
71869;SDS011;59739;47.696;11.746;2023-02-28T10:58:29;17.27;;;11.18;;
71869;SDS011;59739;47.696;11.746;2023-02-28T11:01:16;15.82;;;9.85;;
71869;SDS011;59739;47.696;11.746;2023-02-28T11:03:45;16.40;;;10.05;;
71869;SDS011;59739;47.696;11.746;2023-02-28T11:06:15;17.27;;;11.00;;
71869;SDS011;59739;47.696;11.746;2023-02-28T11:08:51;17.30;;;11.00;;
71869;SDS011;59739;47.696;11.746;2023-02-28T11:11:21;18.60;;;12.20;;
71869;SDS011;59739;47.696;11.746;2023-02-28T11:13:52;15.35;;;8.82;;
71869;SDS011;59739;47.696;11.746;2023-02-28T11:16:21;17.35;;;10.13;;
71869;SDS011;59739;47.696;11.746;2023-02-28T11:18:56;15.77;;;9.77;;
71869;SDS011;59739;47.696;11.746;2023-02-28T11:21:27;17.45;;;11.63;;
71869;SDS011;59739;47.696;11.746;2023-02-28T11:24:03;16.67;;;11.27;;
71869;SDS011;59739;47.696;11.746;2023-02-28T11:29:11;14.30;;;8.40;;
71869;SDS011;59739;47.696;11.746;2023-02-28T11:32:02;17.92;;;11.35;;
71869;SDS011;59739;47.696;11.746;2023-02-28T11:34:34;18.48;;;11.65;;
71869;SDS011;59739;47.696;11.746;2023-02-28T11:37:01;16.98;;;11.18;;
71869;SDS011;59739;47.696;11.746;2023-02-28T11:39:30;21.67;;;11.30;;
71869;SDS011;59739;47.696;11.746;2023-02-28T11:51:00;19.85;;;12.27;;
71869;SDS011;59739;47.696;11.746;2023-02-28T11:53:42;17.08;;;10.82;;
71869;SDS011;59739;47.696;11.746;2023-02-28T11:56:31;19.83;;;13.10;;
71869;SDS011;59739;47.696;11.746;2023-02-28T12:08:11;19.45;;;12.02;;
71869;SDS011;59739;47.696;11.746;2023-02-28T12:11:11;18.90;;;11.40;;
71869;SDS011;59739;47.696;11.746;2023-02-28T12:16:45;24.15;;;13.18;;
71869;SDS011;59739;47.696;11.746;2023-02-28T12:22:34;21.48;;;12.52;;
71869;SDS011;59739;47.696;11.746;2023-02-28T12:28:16;17.65;;;12.38;;
71869;SDS011;59739;47.696;11.746;2023-02-28T12:33:40;19.63;;;12.32;;
71869;SDS011;59739;47.696;11.746;2023-02-28T12:36:16;19.70;;;11.85;;
71869;SDS011;59739;47.696;11.746;2023-02-28T12:39:08;20.05;;;13.88;;
71869;SDS011;59739;47.696;11.746;2023-02-28T12:41:59;18.23;;;11.90;;
71869;SDS011;59739;47.696;11.746;2023-02-28T12:44:40;21.13;;;13.15;;
71869;SDS011;59739;47.696;11.746;2023-02-28T12:47:17;17.83;;;11.68;;
71869;SDS011;59739;47.696;11.746;2023-02-28T12:49:49;22.15;;;14.10;;
71869;SDS011;59739;47.696;11.746;2023-02-28T12:52:25;22.05;;;12.93;;
71869;SDS011;59739;47.696;11.746;2023-02-28T13:07:25;19.75;;;13.00;;
71869;SDS011;59739;47.696;11.746;2023-02-28T13:09:59;21.85;;;13.00;;
71869;SDS011;59739;47.696;11.746;2023-02-28T13:12:29;21.92;;;12.93;;
71869;SDS011;59739;47.696;11.746;2023-02-28T13:15:12;18.55;;;11.60;;
71869;SDS011;59739;47.696;11.746;2023-02-28T13:17:53;18.40;;;12.27;;
71869;SDS011;59739;47.696;11.746;2023-02-28T13:20:24;29.45;;;14.73;;
71869;SDS011;59739;47.696;11.746;2023-02-28T13:23:01;21.85;;;14.15;;
71869;SDS011;59739;47.696;11.746;2023-02-28T13:28:00;21.65;;;13.07;;
71869;SDS011;59739;47.696;11.746;2023-02-28T13:38:48;25.33;;;14.15;;
71869;SDS011;59739;47.696;11.746;2023-02-28T13:49:28;17.67;;;10.45;;
71869;SDS011;59739;47.696;11.746;2023-02-28T13:52:10;25.95;;;15.05;;
71869;SDS011;59739;47.696;11.746;2023-02-28T13:54:56;25.55;;;15.45;;
71869;SDS011;59739;47.696;11.746;2023-02-28T14:03:22;23.02;;;13.23;;
71869;SDS011;59739;47.696;11.746;2023-02-28T14:06:14;28.15;;;15.77;;
71869;SDS011;59739;47.696;11.746;2023-02-28T14:09:01;25.35;;;13.77;;
71869;SDS011;59739;47.696;11.746;2023-02-28T14:11:36;25.42;;;13.98;;
71869;SDS011;59739;47.696;11.746;2023-02-28T14:14:08;28.83;;;16.05;;
71869;SDS011;59739;47.696;11.746;2023-02-28T14:16:54;25.83;;;15.60;;
71869;SDS011;59739;47.696;11.746;2023-02-28T14:19:29;26.45;;;15.65;;
71869;SDS011;59739;47.696;11.746;2023-02-28T14:25:18;26.30;;;14.10;;
71869;SDS011;59739;47.696;11.746;2023-02-28T14:28:13;28.10;;;15.38;;
71869;SDS011;59739;47.696;11.746;2023-02-28T14:30:59;21.67;;;13.45;;
71869;SDS011;59739;47.696;11.746;2023-02-28T14:36:37;29.70;;;14.23;;
71869;SDS011;59739;47.696;11.746;2023-02-28T14:39:07;25.20;;;14.10;;
71869;SDS011;59739;47.696;11.746;2023-02-28T14:41:40;26.40;;;14.00;;
71869;SDS011;59739;47.696;11.746;2023-02-28T14:44:19;24.88;;;13.85;;
71869;SDS011;59739;47.696;11.746;2023-02-28T14:46:54;23.48;;;14.20;;
71869;SDS011;59739;47.696;11.746;2023-02-28T14:49:52;23.42;;;13.93;;
71869;SDS011;59739;47.696;11.746;2023-02-28T14:52:23;26.33;;;14.32;;
71869;SDS011;59739;47.696;11.746;2023-02-28T14:55:04;19.35;;;11.85;;
71869;SDS011;59739;47.696;11.746;2023-02-28T14:57:53;25.63;;;14.48;;
71869;SDS011;59739;47.696;11.746;2023-02-28T15:00:25;25.80;;;15.43;;
71869;SDS011;59739;47.696;11.746;2023-02-28T15:02:54;22.52;;;13.63;;
71869;SDS011;59739;47.696;11.746;2023-02-28T15:05:23;22.27;;;13.75;;
71869;SDS011;59739;47.696;11.746;2023-02-28T15:08:05;24.08;;;13.40;;
71869;SDS011;59739;47.696;11.746;2023-02-28T15:10:42;26.40;;;13.68;;
71869;SDS011;59739;47.696;11.746;2023-02-28T15:13:15;24.20;;;12.40;;
71869;SDS011;59739;47.696;11.746;2023-02-28T15:15:50;22.38;;;13.73;;
71869;SDS011;59739;47.696;11.746;2023-02-28T15:21:14;25.15;;;13.50;;
71869;SDS011;59739;47.696;11.746;2023-02-28T15:23:45;22.02;;;13.50;;
71869;SDS011;59739;47.696;11.746;2023-02-28T15:26:22;25.42;;;13.65;;
71869;SDS011;59739;47.696;11.746;2023-02-28T15:28:54;24.90;;;14.63;;
71869;SDS011;59739;47.696;11.746;2023-02-28T15:31:27;22.55;;;13.27;;
71869;SDS011;59739;47.696;11.746;2023-02-28T15:33:56;21.80;;;12.88;;
71869;SDS011;59739;47.696;11.746;2023-02-28T15:36:30;22.88;;;13.88;;
71869;SDS011;59739;47.696;11.746;2023-02-28T15:41:42;23.35;;;13.02;;
71869;SDS011;59739;47.696;11.746;2023-02-28T15:49:36;21.10;;;13.00;;
71869;SDS011;59739;47.696;11.746;2023-02-28T15:52:17;21.15;;;12.88;;
71869;SDS011;59739;47.696;11.746;2023-02-28T15:54:52;24.42;;;12.98;;
71869;SDS011;59739;47.696;11.746;2023-02-28T15:57:20;24.60;;;13.85;;
71869;SDS011;59739;47.696;11.746;2023-02-28T15:59:54;18.98;;;10.75;;
71869;SDS011;59739;47.696;11.746;2023-02-28T16:04:59;21.70;;;13.82;;
71869;SDS011;59739;47.696;11.746;2023-02-28T16:07:33;24.38;;;14.02;;
71869;SDS011;59739;47.696;11.746;2023-02-28T16:10:14;22.65;;;13.23;;
71869;SDS011;59739;47.696;11.746;2023-02-28T16:12:40;24.02;;;14.65;;
71869;SDS011;59739;47.696;11.746;2023-02-28T16:15:08;24.63;;;14.50;;
71869;SDS011;59739;47.696;11.746;2023-02-28T16:17:54;23.38;;;13.93;;
71869;SDS011;59739;47.696;11.746;2023-02-28T16:20:25;25.38;;;13.77;;
71869;SDS011;59739;47.696;11.746;2023-02-28T16:22:56;25.17;;;14.18;;
71869;SDS011;59739;47.696;11.746;2023-02-28T16:25:36;21.80;;;12.40;;
71869;SDS011;59739;47.696;11.746;2023-02-28T16:28:07;24.45;;;14.15;;
71869;SDS011;59739;47.696;11.746;2023-02-28T16:30:51;23.80;;;13.57;;
71869;SDS011;59739;47.696;11.746;2023-02-28T16:33:17;24.35;;;14.25;;
71869;SDS011;59739;47.696;11.746;2023-02-28T16:35:43;23.60;;;14.05;;
71869;SDS011;59739;47.696;11.746;2023-02-28T16:38:09;24.35;;;13.38;;
71869;SDS011;59739;47.696;11.746;2023-02-28T16:40:35;19.83;;;12.00;;
71869;SDS011;59739;47.696;11.746;2023-02-28T16:43:04;24.13;;;14.60;;
71869;SDS011;59739;47.696;11.746;2023-02-28T16:45:34;22.92;;;13.75;;
71869;SDS011;59739;47.696;11.746;2023-02-28T16:48:00;22.63;;;12.77;;
71869;SDS011;59739;47.696;11.746;2023-02-28T16:50:28;20.70;;;13.20;;
71869;SDS011;59739;47.696;11.746;2023-02-28T16:52:55;22.17;;;12.95;;
71869;SDS011;59739;47.696;11.746;2023-02-28T16:55:22;23.10;;;13.65;;
71869;SDS011;59739;47.696;11.746;2023-02-28T16:57:53;23.65;;;14.55;;
71869;SDS011;59739;47.696;11.746;2023-02-28T17:00:21;24.75;;;13.63;;
71869;SDS011;59739;47.696;11.746;2023-02-28T17:02:48;24.95;;;14.02;;
71869;SDS011;59739;47.696;11.746;2023-02-28T17:05:15;23.30;;;13.32;;
71869;SDS011;59739;47.696;11.746;2023-02-28T17:07:44;23.35;;;13.27;;
71869;SDS011;59739;47.696;11.746;2023-02-28T17:10:13;21.23;;;11.57;;
71869;SDS011;59739;47.696;11.746;2023-02-28T17:12:40;20.95;;;12.27;;
71869;SDS011;59739;47.696;11.746;2023-02-28T17:15:07;20.20;;;11.98;;
71869;SDS011;59739;47.696;11.746;2023-02-28T17:17:35;19.70;;;13.15;;
71869;SDS011;59739;47.696;11.746;2023-02-28T17:20:01;22.92;;;12.10;;
71869;SDS011;59739;47.696;11.746;2023-02-28T17:22:29;21.65;;;13.07;;
71869;SDS011;59739;47.696;11.746;2023-02-28T17:24:55;20.70;;;13.25;;
71869;SDS011;59739;47.696;11.746;2023-02-28T17:27:22;23.52;;;14.52;;
71869;SDS011;59739;47.696;11.746;2023-02-28T17:29:48;22.70;;;13.88;;
71869;SDS011;59739;47.696;11.746;2023-02-28T17:32:14;20.98;;;13.20;;
71869;SDS011;59739;47.696;11.746;2023-02-28T17:34:40;21.85;;;13.45;;
71869;SDS011;59739;47.696;11.746;2023-02-28T17:37:07;19.85;;;12.38;;
71869;SDS011;59739;47.696;11.746;2023-02-28T17:39:33;23.42;;;13.13;;
71869;SDS011;59739;47.696;11.746;2023-02-28T17:42:00;26.88;;;14.60;;
71869;SDS011;59739;47.696;11.746;2023-02-28T17:44:26;21.60;;;12.70;;